Yasemin — 9HA2114 — position and weather

sailwx.info

Track history (hours):
 
Tides and Currents Weather Stations Pressure Air Temp Water Temp Dewpoint Dewpoint Depression Visibility Wind Speed Wind Dir Waves Ship Positions

Yasemin

Last reported at 2016-May-04 03:33 UTC. Time now 2016-May-04 08:00 UTC.
Position N 35°58' W 005°21'.

Length 105 m; draft 7.4 m.

Type: Cargo ship. MMSI: 249988000.

Date/timePositionNaut miles runAvg speedWind from/ knotsBaromVisibWave heightAir tempDewpointWater temp
2016-May-04 03:33N 35°58' W 005°21'215 7.9
2016-May-03 00:33N 37°02' W 009°37'1110.9
2016-May-02 23:33N 37°12' W 009°40'1110.9
2016-May-02 22:33N 37°23' W 009°43'1111.1
2016-May-02 21:33N 37°34' W 009°46'1111.1
2016-May-02 20:33N 37°45' W 009°50'1111.4
2016-May-02 19:33N 37°56' W 009°53'1211.4
2016-May-02 18:32N 38°07' W 009°56'1111.3
2016-May-02 17:33N 38°18' W 009°60'1211.9
2016-May-02 16:33N 38°29' W 010°03'1211.9
2016-May-02 15:33N 38°41' W 010°06'1212.2
2016-May-02 14:33N 38°53' W 010°06'  
2016-Apr-29 19:12N 49°44' W 003°38'911.5
2016-Apr-29 18:27N 49°48' W 003°26'1011.7
2016-Apr-29 17:33N 49°53' W 003°12'1211.6
2016-Apr-29 16:34N 49°59' W 002°56'1111.1
2016-Apr-29 15:33N 50°02' W 002°40'92 9.8
2016-Apr-29 06:10N 50°27' W 000°22'711.0
2016-Apr-29 05:34N 50°29' W 000°12'1010.4
2016-Apr-29 04:34N 50°32' E 000°04'10 9.7
2016-Apr-29 03:32N 50°35' E 000°19'12 8.6
2016-Apr-29 02:09N 50°38' E 000°37'34 8.8
2016-Apr-28 22:16N 50°60' E 001°19'810.7
2016-Apr-28 21:34N 51°05' E 001°28'1010.2
2016-Apr-28 20:33N 51°11' E 001°41'9 9.3
2016-Apr-28 19:34N 51°19' E 001°48'9 8.7
2016-Apr-28 18:34N 51°27' E 001°53'9 9.3
2016-Apr-28 17:34N 51°36' E 001°47'9 9.3
2016-Apr-28 16:33N 51°45' E 001°44'9 8.8
2016-Apr-28 15:34N 51°52' E 001°35'8 7.6
2016-Apr-28 14:33N 51°56' E 001°25'7 7.0
2016-Apr-28 13:34N 51°60' E 001°15'4 3.9
2016-Apr-28 12:31N 52°02' E 001°10'0 0.0
2016-Apr-28 11:31N 52°02' E 001°10'0 0.0
2016-Apr-28 10:31N 52°02' E 001°10'0 0.0
2016-Apr-28 09:31N 52°02' E 001°10'0 0.0
2016-Apr-28 08:31N 52°02' E 001°10'0 0.0
2016-Apr-28 07:31N 52°02' E 001°10'0 0.0
2016-Apr-28 06:31N 52°02' E 001°10'0 0.0
2016-Apr-28 05:28N 52°02' E 001°10'0 0.0
2016-Apr-28 04:31N 52°02' E 001°10'0 0.0
2016-Apr-28 03:31N 52°02' E 001°10'0 0.0
2016-Apr-28 02:31N 52°02' E 001°10'0 0.0
2016-Apr-28 01:31N 52°02' E 001°10'0 0.4
2016-Apr-28 00:32N 52°02' E 001°10'0 0.0
2016-Apr-27 23:32N 52°02' E 001°10'0 0.0
2016-Apr-27 22:29N 52°02' E 001°10'0 0.0
2016-Apr-27 21:30N 52°02' E 001°10'0 0.0
2016-Apr-27 20:33N 52°02' E 001°10'0 0.0
2016-Apr-27 19:33N 52°02' E 001°10'0 0.0
2016-Apr-27 18:30N 52°02' E 001°10'0 0.0
2016-Apr-27 17:33N 52°02' E 001°10'0 0.0
2016-Apr-27 16:33N 52°02' E 001°10'0 0.0
2016-Apr-27 15:33N 52°02' E 001°10'0 0.0
2016-Apr-27 14:33N 52°02' E 001°10'0 0.0
2016-Apr-27 13:33N 52°02' E 001°10'0 0.0
2016-Apr-27 12:33N 52°02' E 001°10'0 0.0
2016-Apr-27 11:33N 52°02' E 001°10'0 0.0
2016-Apr-27 10:33N 52°02' E 001°10'0 0.0
2016-Apr-27 09:33N 52°02' E 001°10'0 0.0
2016-Apr-27 08:33N 52°02' E 001°10'0 0.0
2016-Apr-27 07:30N 52°02' E 001°10'0 0.0
2016-Apr-27 06:33N 52°02' E 001°10'0 0.0
2016-Apr-27 05:33N 52°02' E 001°10'0 0.0
2016-Apr-27 04:33N 52°02' E 001°10'0 0.0
2016-Apr-27 03:33N 52°02' E 001°10'0 0.0
2016-Apr-27 02:33N 52°02' E 001°10'0 0.0
2016-Apr-27 01:33N 52°02' E 001°10'0 0.0
2016-Apr-27 00:33N 52°02' E 001°10'0 0.0
2016-Apr-26 23:33N 52°02' E 001°10'0 0.0
2016-Apr-26 22:33N 52°02' E 001°10'0 0.0
2016-Apr-26 21:33N 52°02' E 001°10'0 0.0
2016-Apr-26 20:33N 52°02' E 001°10'0 0.0
2016-Apr-26 19:30N 52°02' E 001°10'0 0.0
2016-Apr-26 18:33N 52°02' E 001°10'0 0.0
2016-Apr-26 17:30N 52°02' E 001°10'0 0.0
2016-Apr-26 16:30N 52°02' E 001°10'0 0.0
2016-Apr-26 15:33N 52°02' E 001°10'0 0.0
2016-Apr-26 14:30N 52°02' E 001°10'0 0.0
2016-Apr-26 13:33N 52°02' E 001°10'0 0.0
2016-Apr-26 12:30N 52°02' E 001°10'0 0.0
2016-Apr-26 11:30N 52°02' E 001°10'0 0.0
2016-Apr-26 10:33N 52°02' E 001°10'0 0.0
2016-Apr-26 09:33N 52°02' E 001°10'0 0.0
2016-Apr-26 08:33N 52°02' E 001°10'0 0.0
2016-Apr-26 07:33N 52°02' E 001°10'0 0.0
2016-Apr-26 06:33N 52°02' E 001°10'0 0.0
2016-Apr-26 05:33N 52°02' E 001°10'0 0.0
2016-Apr-26 04:30N 52°02' E 001°10'0 0.0
2016-Apr-26 03:33N 52°02' E 001°10'0 0.0
2016-Apr-26 02:33N 52°02' E 001°10'0 0.0
2016-Apr-26 01:33N 52°02' E 001°10'0 0.0
2016-Apr-26 00:33N 52°02' E 001°10'0 0.0
2016-Apr-25 23:33N 52°02' E 001°10'0 0.0
2016-Apr-25 22:33N 52°02' E 001°10'0 0.0
2016-Apr-25 21:27N 52°02' E 001°10'0 0.0
2016-Apr-25 20:33N 52°02' E 001°10'0 0.0
2016-Apr-25 19:33N 52°02' E 001°10'0 0.0
2016-Apr-25 18:33N 52°02' E 001°10'0 0.0
2016-Apr-25 17:33N 52°02' E 001°10'0 0.0
2016-Apr-25 16:33N 52°02' E 001°10'0 0.0
2016-Apr-25 15:27N 52°02' E 001°10'0 0.0
2016-Apr-25 14:30N 52°02' E 001°10'0 0.0
2016-Apr-25 13:33N 52°02' E 001°10'0 0.0
2016-Apr-25 12:33N 52°02' E 001°10'0 0.0
2016-Apr-25 11:33N 52°02' E 001°10'0 0.0
2016-Apr-25 10:27N 52°02' E 001°10'0 0.0
2016-Apr-25 09:33N 52°02' E 001°10'0 0.0
2016-Apr-25 08:30N 52°02' E 001°10'0 0.0
2016-Apr-25 07:33N 52°02' E 001°10'6 5.5
2016-Apr-25 06:33N 51°59' E 001°17'9 8.5
2016-Apr-25 05:33N 51°57' E 001°30'7 7.1
2016-Apr-25 04:33N 51°51' E 001°37'9 9.3
2016-Apr-25 03:33N 51°45' E 001°48'1212.0
2016-Apr-25 02:33N 51°34' E 001°54'1212.0
2016-Apr-25 01:33N 51°23' E 002°04'1110.8
2016-Apr-25 00:33N 51°13' E 002°00'1313.0
2016-Apr-24 23:33N 51°05' E 001°43'1010.4
2016-Apr-24 22:33N 50°59' E 001°31'8 8.4
2016-Apr-24 21:33N 50°51' E 001°26'43 8.4
2016-Apr-24 16:27N 50°25' E 000°31'10 9.5
2016-Apr-24 15:26N 50°23' E 000°17'8 9.4
2016-Apr-24 14:33N 50°21' E 000°04'10 9.7
2016-Apr-24 13:32N 50°19' W 000°11'10613.3
2016-Apr-24 05:33N 49°50' W 002°50'1312.2
2016-Apr-24 04:28N 49°43' W 003°08'  
Track history (hours):
 
Tides and Currents Weather Stations Pressure Air Temp Water Temp Dewpoint Dewpoint Depression Visibility Wind Speed Wind Dir Waves Ship Positions

Yasemin

Last reported at 2016-May-04 03:33 UTC. Time now 2016-May-04 08:00 UTC.
Position N 35°58' W 005°21'.

Length 105 m; draft 7.4 m.

Type: Cargo ship. MMSI: 249988000.

Date/timePositionNaut miles runAvg speedWind from/ knotsBaromVisibWave heightAir tempDewpointWater temp
2016-May-04 03:33N 35°58' W 005°21'215 7.9
2016-May-03 00:33N 37°02' W 009°37'1110.9
2016-May-02 23:33N 37°12' W 009°40'1110.9
2016-May-02 22:33N 37°23' W 009°43'1111.1
2016-May-02 21:33N 37°34' W 009°46'1111.1
2016-May-02 20:33N 37°45' W 009°50'1111.4
2016-May-02 19:33N 37°56' W 009°53'1211.4
2016-May-02 18:32N 38°07' W 009°56'1111.3
2016-May-02 17:33N 38°18' W 009°60'1211.9
2016-May-02 16:33N 38°29' W 010°03'1211.9
2016-May-02 15:33N 38°41' W 010°06'1212.2
2016-May-02 14:33N 38°53' W 010°06'  
2016-Apr-29 19:12N 49°44' W 003°38'911.5
2016-Apr-29 18:27N 49°48' W 003°26'1011.7
2016-Apr-29 17:33N 49°53' W 003°12'1211.6
2016-Apr-29 16:34N 49°59' W 002°56'1111.1
2016-Apr-29 15:33N 50°02' W 002°40'92 9.8
2016-Apr-29 06:10N 50°27' W 000°22'711.0
2016-Apr-29 05:34N 50°29' W 000°12'1010.4
2016-Apr-29 04:34N 50°32' E 000°04'10 9.7
2016-Apr-29 03:32N 50°35' E 000°19'12 8.6
2016-Apr-29 02:09N 50°38' E 000°37'34 8.8
2016-Apr-28 22:16N 50°60' E 001°19'810.7
2016-Apr-28 21:34N 51°05' E 001°28'1010.2
2016-Apr-28 20:33N 51°11' E 001°41'9 9.3
2016-Apr-28 19:34N 51°19' E 001°48'9 8.7
2016-Apr-28 18:34N 51°27' E 001°53'9 9.3
2016-Apr-28 17:34N 51°36' E 001°47'9 9.3
2016-Apr-28 16:33N 51°45' E 001°44'9 8.8
2016-Apr-28 15:34N 51°52' E 001°35'8 7.6
2016-Apr-28 14:33N 51°56' E 001°25'7 7.0
2016-Apr-28 13:34N 51°60' E 001°15'4 3.9
2016-Apr-28 12:31N 52°02' E 001°10'0 0.0
2016-Apr-28 11:31N 52°02' E 001°10'0 0.0
2016-Apr-28 10:31N 52°02' E 001°10'0 0.0
2016-Apr-28 09:31N 52°02' E 001°10'0 0.0
2016-Apr-28 08:31N 52°02' E 001°10'0 0.0
2016-Apr-28 07:31N 52°02' E 001°10'0 0.0
2016-Apr-28 06:31N 52°02' E 001°10'0 0.0
2016-Apr-28 05:28N 52°02' E 001°10'0 0.0
2016-Apr-28 04:31N 52°02' E 001°10'0 0.0
2016-Apr-28 03:31N 52°02' E 001°10'0 0.0
2016-Apr-28 02:31N 52°02' E 001°10'0 0.0
2016-Apr-28 01:31N 52°02' E 001°10'0 0.4
2016-Apr-28 00:32N 52°02' E 001°10'0 0.0
2016-Apr-27 23:32N 52°02' E 001°10'0 0.0
2016-Apr-27 22:29N 52°02' E 001°10'0 0.0
2016-Apr-27 21:30N 52°02' E 001°10'0 0.0
2016-Apr-27 20:33N 52°02' E 001°10'0 0.0
2016-Apr-27 19:33N 52°02' E 001°10'0 0.0
2016-Apr-27 18:30N 52°02' E 001°10'0 0.0
2016-Apr-27 17:33N 52°02' E 001°10'0 0.0
2016-Apr-27 16:33N 52°02' E 001°10'0 0.0
2016-Apr-27 15:33N 52°02' E 001°10'0 0.0
2016-Apr-27 14:33N 52°02' E 001°10'0 0.0
2016-Apr-27 13:33N 52°02' E 001°10'0 0.0
2016-Apr-27 12:33N 52°02' E 001°10'0 0.0
2016-Apr-27 11:33N 52°02' E 001°10'0 0.0
2016-Apr-27 10:33N 52°02' E 001°10'0 0.0
2016-Apr-27 09:33N 52°02' E 001°10'0 0.0
2016-Apr-27 08:33N 52°02' E 001°10'0 0.0
2016-Apr-27 07:30N 52°02' E 001°10'0 0.0
2016-Apr-27 06:33N 52°02' E 001°10'0 0.0
2016-Apr-27 05:33N 52°02' E 001°10'0 0.0
2016-Apr-27 04:33N 52°02' E 001°10'0 0.0
2016-Apr-27 03:33N 52°02' E 001°10'0 0.0
2016-Apr-27 02:33N 52°02' E 001°10'0 0.0
2016-Apr-27 01:33N 52°02' E 001°10'0 0.0
2016-Apr-27 00:33N 52°02' E 001°10'0 0.0
2016-Apr-26 23:33N 52°02' E 001°10'0 0.0
2016-Apr-26 22:33N 52°02' E 001°10'0 0.0
2016-Apr-26 21:33N 52°02' E 001°10'0 0.0
2016-Apr-26 20:33N 52°02' E 001°10'0 0.0
2016-Apr-26 19:30N 52°02' E 001°10'0 0.0
2016-Apr-26 18:33N 52°02' E 001°10'0 0.0
2016-Apr-26 17:30N 52°02' E 001°10'0 0.0
2016-Apr-26 16:30N 52°02' E 001°10'0 0.0
2016-Apr-26 15:33N 52°02' E 001°10'0 0.0
2016-Apr-26 14:30N 52°02' E 001°10'0 0.0
2016-Apr-26 13:33N 52°02' E 001°10'0 0.0
2016-Apr-26 12:30N 52°02' E 001°10'0 0.0
2016-Apr-26 11:30N 52°02' E 001°10'0 0.0
2016-Apr-26 10:33N 52°02' E 001°10'0 0.0
2016-Apr-26 09:33N 52°02' E 001°10'0 0.0
2016-Apr-26 08:33N 52°02' E 001°10'0 0.0
2016-Apr-26 07:33N 52°02' E 001°10'0 0.0
2016-Apr-26 06:33N 52°02' E 001°10'0 0.0
2016-Apr-26 05:33N 52°02' E 001°10'0 0.0
2016-Apr-26 04:30N 52°02' E 001°10'0 0.0
2016-Apr-26 03:33N 52°02' E 001°10'0 0.0
2016-Apr-26 02:33N 52°02' E 001°10'0 0.0
2016-Apr-26 01:33N 52°02' E 001°10'0 0.0
2016-Apr-26 00:33N 52°02' E 001°10'0 0.0
2016-Apr-25 23:33N 52°02' E 001°10'0 0.0
2016-Apr-25 22:33N 52°02' E 001°10'0 0.0
2016-Apr-25 21:27N 52°02' E 001°10'0 0.0
2016-Apr-25 20:33N 52°02' E 001°10'0 0.0
2016-Apr-25 19:33N 52°02' E 001°10'0 0.0
2016-Apr-25 18:33N 52°02' E 001°10'0 0.0
2016-Apr-25 17:33N 52°02' E 001°10'0 0.0
2016-Apr-25 16:33N 52°02' E 001°10'0 0.0
2016-Apr-25 15:27N 52°02' E 001°10'0 0.0
2016-Apr-25 14:30N 52°02' E 001°10'0 0.0
2016-Apr-25 13:33N 52°02' E 001°10'0 0.0
2016-Apr-25 12:33N 52°02' E 001°10'0 0.0
2016-Apr-25 11:33N 52°02' E 001°10'0 0.0
2016-Apr-25 10:27N 52°02' E 001°10'0 0.0
2016-Apr-25 09:33N 52°02' E 001°10'0 0.0
2016-Apr-25 08:30N 52°02' E 001°10'0 0.0
2016-Apr-25 07:33N 52°02' E 001°10'6 5.5
2016-Apr-25 06:33N 51°59' E 001°17'9 8.5
2016-Apr-25 05:33N 51°57' E 001°30'7 7.1
2016-Apr-25 04:33N 51°51' E 001°37'9 9.3
2016-Apr-25 03:33N 51°45' E 001°48'1212.0
2016-Apr-25 02:33N 51°34' E 001°54'1212.0
2016-Apr-25 01:33N 51°23' E 002°04'1110.8
2016-Apr-25 00:33N 51°13' E 002°00'1313.0
2016-Apr-24 23:33N 51°05' E 001°43'1010.4
2016-Apr-24 22:33N 50°59' E 001°31'8 8.4
2016-Apr-24 21:33N 50°51' E 001°26'43 8.4
2016-Apr-24 16:27N 50°25' E 000°31'10 9.5
2016-Apr-24 15:26N 50°23' E 000°17'8 9.4
2016-Apr-24 14:33N 50°21' E 000°04'10 9.7
2016-Apr-24 13:32N 50°19' W 000°11'10613.3
2016-Apr-24 05:33N 49°50' W 002°50'1312.2
2016-Apr-24 04:28N 49°43' W 003°08'  

Dump ship's entire track history